Time;durP1;ratioP1;P1;durP2;ratioP2;P2;SDS_P1;SDS_P2;PMS_P1;PMS_P2;Temp;Humidity;BMP_temperature;BMP_pressure;BME280_temperature;BME280_humidity;BME280_pressure;Samples;Min_cycle;Max_cycle;Signal;HPM_P1;HPM_P2
2023/06/15 00:02:09;;;;;;;;;;;;;;;18.50;50.64;101801.41;5043184;28;19928;-64
2023/06/15 00:04:34;;;;;;;;;;;;;;;18.47;50.66;101791.88;5035977;28;19968;-64
2023/06/15 00:06:59;;;;;;;;;;;;;;;18.48;51.14;101798.09;5036405;28;20340;-63
2023/06/15 00:09:24;;;;;;;;;;;;;;;18.43;51.02;101797.88;5041780;28;19971;-63
2023/06/15 00:11:49;;;;;;;;;;;;;;;18.40;51.19;101793.72;5047115;28;19919;-64
2023/06/15 00:14:15;;;;;;;;;;;;;;;18.39;51.15;101793.91;5030182;28;19943;-63
2023/06/15 00:16:41;;;;;;;;;;;;;;;18.36;51.54;101787.09;5020958;28;20370;-63
2023/06/15 00:19:07;;;;;;;;;;;;;;;18.32;51.46;101795.75;5035892;28;19947;-64
2023/06/15 00:21:40;;;;;;;;;;;;;;;18.26;51.81;101787.47;5040500;28;19966;-63
2023/06/15 00:24:06;;;;;;;;;;;;;;;18.22;52.08;101791.56;5034669;28;19917;-64
2023/06/15 00:26:31;;;;;;;;;;;;;;;18.21;51.50;101789.06;5038364;28;19921;-63
2023/06/15 00:28:56;;;;;;;;;;;;;;;18.18;51.72;101794.81;5038484;28;19956;-63
2023/06/15 00:31:22;;;;;;;;;;;;;;;18.14;51.57;101802.47;5032241;28;19955;-63
2023/06/15 00:33:47;;;;;;;;;;;;;;;18.12;51.96;101806.38;5035906;28;20019;-64
2023/06/15 00:36:12;;;;;;;;;;;;;;;18.11;52.26;101802.84;5028121;28;20014;-64
2023/06/15 00:38:38;;;;;;;;;;;;;;;18.09;52.36;101804.09;5039200;28;20322;-63
2023/06/15 00:41:03;;;;;;;;;;;;;;;18.04;52.09;101799.31;5036393;28;20386;-63
2023/06/15 00:43:28;;;;;;;;;;;;;;;18.01;52.08;101804.25;5044939;28;19967;-64
2023/06/15 00:45:54;;;;;;;;;;;;;;;17.94;52.43;101809.56;5036629;28;19940;-63
2023/06/15 00:48:19;;;;;;;;;;;;;;;17.89;52.69;101806.63;5033741;28;19916;-63
2023/06/15 00:50:45;;;;;;;;;;;;;;;17.81;53.24;101806.75;5039076;28;19924;-63
2023/06/15 00:53:10;;;;;;;;;;;;;;;17.71;53.39;101815.16;5034762;28;20153;-64
2023/06/15 00:55:35;;;;;;;;;;;;;;;17.67;53.22;101807.66;5039658;28;19917;-64
2023/06/15 00:58:01;;;;;;;;;;;;;;;17.65;53.84;101806.00;5033238;28;19917;-63
2023/06/15 01:00:27;;;;;;;;;;;;;;;17.62;53.50;101805.53;5032784;28;19924;-64
2023/06/15 01:02:56;;;;;;;;;;;;;;;17.57;53.95;101802.59;5038204;28;19925;-63
2023/06/15 01:05:22;;;;;;;;;;;;;;;17.52;54.05;101802.34;5036453;28;19986;-65
2023/06/15 01:07:48;;;;;;;;;;;;;;;17.47;54.11;101804.78;5033743;28;19971;-63
2023/06/15 01:10:15;;;;;;;;;;;;;;;17.45;54.40;101807.66;5034358;28;19925;-63
2023/06/15 01:12:44;;;;;;;;;;;;;;;17.45;54.18;101807.66;5038544;28;20003;-64
2023/06/15 01:15:09;;;;;;;;;;;;;;;17.41;54.81;101802.88;5036326;28;20480;-64
2023/06/15 01:17:37;;;;;;;;;;;;;;;17.36;54.83;101811.50;5042645;28;20023;-64
2023/06/15 01:20:07;;;;;;;;;;;;;;;17.34;54.58;101816.22;5035715;28;19924;-63
2023/06/15 01:22:41;;;;;;;;;;;;;;;17.32;55.06;101812.88;5052023;28;20400;-63
2023/06/15 01:25:15;;;;;;;;;;;;;;;17.27;54.79;101809.94;5038721;28;20288;-64
2023/06/15 01:27:41;;;;;;;;;;;;;;;17.24;55.54;101810.34;5041357;28;19971;-63
2023/06/15 01:30:07;;;;;;;;;;;;;;;17.19;55.89;101815.44;5034139;28;19920;-63
2023/06/15 01:32:33;;;;;;;;;;;;;;;17.15;55.57;101816.84;5034465;28;19917;-65
2023/06/15 01:34:59;;;;;;;;;;;;;;;17.14;56.13;101815.19;5039789;28;19916;-63
2023/06/15 01:37:24;;;;;;;;;;;;;;;17.11;55.98;101815.56;5032093;28;21501;-63
2023/06/15 01:39:49;;;;;;;;;;;;;;;17.08;56.46;101822.16;5047858;28;19924;-63
2023/06/15 01:42:14;;;;;;;;;;;;;;;17.08;56.21;101821.31;5039515;28;19925;-63
2023/06/15 01:44:40;;;;;;;;;;;;;;;17.09;56.39;101823.00;5033740;28;19917;-63
2023/06/15 01:47:06;;;;;;;;;;;;;;;17.09;56.25;101817.63;5037713;28;19925;-63
2023/06/15 01:49:32;;;;;;;;;;;;;;;17.08;56.13;101821.31;5042172;28;20412;-63
2023/06/15 01:51:57;;;;;;;;;;;;;;;17.08;56.30;101822.16;5039298;28;19921;-63
2023/06/15 01:54:23;;;;;;;;;;;;;;;17.06;56.58;101817.97;5040623;28;19917;-63
2023/06/15 01:56:48;;;;;;;;;;;;;;;16.99;57.05;101825.94;5040749;28;19926;-63
2023/06/15 01:59:13;;;;;;;;;;;;;;;16.89;56.76;101810.16;5034450;28;19975;-63
2023/06/15 02:01:38;;;;;;;;;;;;;;;16.88;56.77;101823.78;5042140;28;19924;-63
2023/06/15 02:04:04;;;;;;;;;;;;;;;16.83;57.28;101816.28;5040744;28;20011;-64
2023/06/15 02:06:29;;;;;;;;;;;;;;;16.78;57.34;101816.03;5038798;28;20432;-64
2023/06/15 02:08:54;;;;;;;;;;;;;;;16.72;57.87;101820.25;5047981;28;19920;-64
2023/06/15 02:11:19;;;;;;;;;;;;;;;16.67;57.72;101819.16;5024788;28;20369;-63
2023/06/15 02:13:45;;;;;;;;;;;;;;;16.60;58.18;101821.72;5038753;28;19925;-63
2023/06/15 02:16:11;;;;;;;;;;;;;;;16.54;58.25;101818.97;5047227;28;19919;-63
2023/06/15 02:18:37;;;;;;;;;;;;;;;16.49;58.16;101818.69;5038583;28;20308;-63
2023/06/15 02:21:02;;;;;;;;;;;;;;;16.41;58.24;101815.06;5035407;28;19917;-63
2023/06/15 02:23:27;;;;;;;;;;;;;;;16.40;58.18;101817.94;5041763;28;19916;-63
2023/06/15 02:25:52;;;;;;;;;;;;;;;16.40;58.49;101824.13;5062894;28;19912;-63
2023/06/15 02:28:17;;;;;;;;;;;;;;;16.38;58.41;101826.16;5034091;28;19917;-63
2023/06/15 02:30:43;;;;;;;;;;;;;;;16.33;59.02;101828.56;5037103;28;20008;-63
2023/06/15 02:33:09;;;;;;;;;;;;;;;16.29;58.88;101826.44;5041398;28;19913;-63
2023/06/15 02:35:34;;;;;;;;;;;;;;;16.25;59.11;101830.53;5038457;28;19944;-63
2023/06/15 02:37:59;;;;;;;;;;;;;;;16.19;59.30;101831.22;5039900;28;19913;-64
2023/06/15 02:40:25;;;;;;;;;;;;;;;16.15;59.29;101836.13;5035364;28;19920;-65
2023/06/15 02:42:50;;;;;;;;;;;;;;;16.13;59.66;101838.16;5035950;28;20368;-65
2023/06/15 02:45:15;;;;;;;;;;;;;;;16.13;59.85;101832.78;5037761;28;19921;-63
2023/06/15 02:47:40;;;;;;;;;;;;;;;16.14;59.32;101839.00;5036761;28;19917;-63
2023/06/15 02:50:06;;;;;;;;;;;;;;;16.17;59.46;101838.63;5038316;28;19956;-63
2023/06/15 02:52:31;;;;;;;;;;;;;;;16.22;59.68;101834.41;5049306;28;19921;-63
2023/06/15 02:55:00;;;;;;;;;;;;;;;16.26;59.65;101838.38;5041166;28;19970;-63
2023/06/15 02:57:26;;;;;;;;;;;;;;;16.28;59.78;101833.66;5031346;28;19963;-63
2023/06/15 02:59:51;;;;;;;;;;;;;;;16.30;59.95;101838.84;5034984;28;19913;-63
2023/06/15 03:02:16;;;;;;;;;;;;;;;16.31;60.00;101835.97;5037348;28;20015;-63
2023/06/15 03:04:44;;;;;;;;;;;;;;;16.32;60.20;101832.28;5030662;28;19913;-63
2023/06/15 03:07:16;;;;;;;;;;;;;;;16.30;60.18;101839.66;5038240;28;20409;-63
2023/06/15 03:09:42;;;;;;;;;;;;;;;16.28;59.99;101840.88;5036740;28;20383;-63
2023/06/15 03:12:08;;;;;;;;;;;;;;;16.28;59.87;101840.88;5029974;28;19917;-63
2023/06/15 03:14:35;;;;;;;;;;;;;;;16.27;60.13;101839.22;5029842;28;19924;-63
2023/06/15 03:17:01;;;;;;;;;;;;;;;16.27;60.04;101837.34;5045372;28;19924;-63
2023/06/15 03:19:26;;;;;;;;;;;;;;;16.26;59.99;101837.53;5039045;28;19917;-63
2023/06/15 03:21:52;;;;;;;;;;;;;;;16.25;60.13;101842.06;5048917;28;19924;-63
2023/06/15 03:24:17;;;;;;;;;;;;;;;16.26;59.93;101843.72;5034542;28;20377;-63
2023/06/15 03:26:47;;;;;;;;;;;;;;;16.29;59.72;101839.84;5046717;28;20453;-63
2023/06/15 03:29:13;;;;;;;;;;;;;;;16.29;59.28;101840.69;5032775;28;20377;-63
2023/06/15 03:31:40;;;;;;;;;;;;;;;16.29;59.48;101851.41;5038564;28;20019;-63
2023/06/15 03:34:06;;;;;;;;;;;;;;;16.29;59.27;101853.25;5034763;28;19928;-63
2023/06/15 03:36:32;;;;;;;;;;;;;;;16.27;59.84;101850.75;5043689;28;19921;-63
2023/06/15 03:38:57;;;;;;;;;;;;;;;16.27;59.47;101845.41;5031203;28;19956;-63
2023/06/15 03:41:23;;;;;;;;;;;;;;;16.28;59.89;101839.03;5029954;28;19913;-64
2023/06/15 03:43:48;;;;;;;;;;;;;;;16.29;59.74;101843.38;5031541;28;19927;-64
2023/06/15 03:46:13;;;;;;;;;;;;;;;16.32;59.88;101844.84;5029927;28;20793;-64
2023/06/15 03:48:38;;;;;;;;;;;;;;;16.31;60.15;101841.34;5033289;28;19917;-64
2023/06/15 03:51:04;;;;;;;;;;;;;;;16.31;60.17;101837.81;5042001;28;19916;-64
2023/06/15 03:53:29;;;;;;;;;;;;;;;16.31;59.87;101835.97;5036899;28;20016;-64
2023/06/15 03:55:54;;;;;;;;;;;;;;;16.32;60.14;101843.00;5035363;28;20036;-64
2023/06/15 03:58:19;;;;;;;;;;;;;;;16.32;60.30;101845.69;5031974;28;20000;-64
2023/06/15 04:00:45;;;;;;;;;;;;;;;16.32;60.33;101843.00;5034081;28;19917;-64
2023/06/15 04:03:10;;;;;;;;;;;;;;;16.32;60.22;101848.34;5028724;28;20576;-64
2023/06/15 04:05:36;;;;;;;;;;;;;;;16.33;60.31;101847.34;5036634;28;19985;-63
2023/06/15 04:08:01;;;;;;;;;;;;;;;16.35;59.99;101842.63;5043654;28;19931;-64
2023/06/15 04:10:26;;;;;;;;;;;;;;;16.37;60.48;101850.47;5036599;28;19940;-64
2023/06/15 04:12:51;;;;;;;;;;;;;;;16.40;60.08;101853.63;5030929;28;19919;-64
2023/06/15 04:15:17;;;;;;;;;;;;;;;16.41;59.97;101857.97;5037032;28;20428;-63
2023/06/15 04:17:42;;;;;;;;;;;;;;;16.45;60.07;101854.91;5035815;28;19963;-63
2023/06/15 04:20:08;;;;;;;;;;;;;;;16.47;60.31;101855.56;5035127;28;19913;-63
2023/06/15 04:22:34;;;;;;;;;;;;;;;16.48;60.15;101854.53;5040862;28;19924;-64
2023/06/15 04:24:59;;;;;;;;;;;;;;;16.51;60.20;101862.25;5028788;28;19914;-63
2023/06/15 04:27:27;;;;;;;;;;;;;;;16.52;60.34;101859.38;5030642;28;19913;-64
2023/06/15 04:29:52;;;;;;;;;;;;;;;16.51;60.46;101856.88;5030071;28;19918;-64
2023/06/15 04:32:18;;;;;;;;;;;;;;;16.51;60.09;101862.25;5034714;28;19923;-64
2023/06/15 04:34:46;;;;;;;;;;;;;;;16.52;60.48;101866.59;5035152;28;20389;-64
2023/06/15 04:37:14;;;;;;;;;;;;;;;16.53;60.52;101873.63;5031506;28;19913;-63
2023/06/15 04:39:39;;;;;;;;;;;;;;;16.52;60.77;101872.78;5028512;28;19920;-64
2023/06/15 04:42:04;;;;;;;;;;;;;;;16.55;60.56;101872.41;5032942;28;19913;-64
2023/06/15 04:44:30;;;;;;;;;;;;;;;16.60;60.35;101871.84;5038314;28;19924;-63
2023/06/15 04:46:55;;;;;;;;;;;;;;;16.66;60.16;101873.81;5037491;28;19929;-64
2023/06/15 04:49:21;;;;;;;;;;;;;;;16.73;60.20;101874.75;5028734;28;19936;-64
2023/06/15 04:51:48;;;;;;;;;;;;;;;16.79;60.12;101878.56;5037430;28;19936;-63
2023/06/15 04:54:13;;;;;;;;;;;;;;;16.85;60.42;101883.16;5029677;28;19920;-63
2023/06/15 04:56:38;;;;;;;;;;;;;;;16.91;60.38;101880.56;5041795;28;19917;-63
2023/06/15 04:59:03;;;;;;;;;;;;;;;16.97;60.35;101884.34;5049449;28;20004;-64
2023/06/15 05:01:28;;;;;;;;;;;;;;;17.02;61.04;101888.13;5034646;28;19917;-64
2023/06/15 05:03:54;;;;;;;;;;;;;;;17.10;61.25;101887.22;5030215;28;19955;-64
2023/06/15 05:06:19;;;;;;;;;;;;;;;17.18;61.17;101891.63;5034073;28;19921;-64
2023/06/15 05:08:44;;;;;;;;;;;;;;;17.23;60.94;101894.59;5037578;28;19962;-63
2023/06/15 05:11:10;;;;;;;;;;;;;;;17.29;60.96;101891.97;5036502;28;19920;-63
2023/06/15 05:13:35;;;;;;;;;;;;;;;17.38;61.48;101892.72;5035336;28;19920;-64
2023/06/15 05:16:00;;;;;;;;;;;;;;;17.46;61.29;101889.06;5045568;28;20424;-63
2023/06/15 05:18:26;;;;;;;;;;;;;;;17.54;61.59;101895.13;5041030;28;19921;-64
2023/06/15 05:20:52;;;;;;;;;;;;;;;17.63;61.49;101891.31;5036318;28;19992;-64
2023/06/15 05:23:19;;;;;;;;;;;;;;;17.71;61.23;101900.31;5046836;28;20000;-63
2023/06/15 05:25:44;;;;;;;;;;;;;;;17.78;61.26;101895.81;5033245;28;19921;-63
2023/06/15 05:28:10;;;;;;;;;;;;;;;17.84;61.17;101903.94;5040420;28;19975;-64
2023/06/15 05:30:35;;;;;;;;;;;;;;;17.91;61.26;101893.25;5045572;28;20100;-63
2023/06/15 05:33:00;;;;;;;;;;;;;;;17.97;60.93;101889.81;5039907;28;19948;-64
2023/06/15 05:35:25;;;;;;;;;;;;;;;18.04;60.74;101895.25;5037866;28;19951;-63
2023/06/15 05:37:50;;;;;;;;;;;;;;;18.09;60.61;101896.31;5035701;28;19915;-63
2023/06/15 05:40:16;;;;;;;;;;;;;;;18.18;60.58;101897.81;5033472;28;20089;-63
2023/06/15 05:42:41;;;;;;;;;;;;;;;18.25;60.57;101895.22;5037640;28;19971;-63
2023/06/15 05:45:06;;;;;;;;;;;;;;;18.31;60.17;101899.81;5038886;28;19917;-63
2023/06/15 05:47:32;;;;;;;;;;;;;;;18.37;59.87;101904.41;5042175;28;20015;-63
2023/06/15 05:49:57;;;;;;;;;;;;;;;18.41;59.13;101902.97;5033939;28;19917;-64
2023/06/15 05:52:22;;;;;;;;;;;;;;;18.45;59.02;101906.94;5044415;28;19965;-63
2023/06/15 05:54:48;;;;;;;;;;;;;;;18.50;58.85;101909.88;5043626;28;19920;-64
2023/06/15 05:57:13;;;;;;;;;;;;;;;18.57;58.98;101909.91;5033587;28;20016;-63
2023/06/15 05:59:38;;;;;;;;;;;;;;;18.64;58.58;101909.97;5043377;28;19913;-63
2023/06/15 06:02:04;;;;;;;;;;;;;;;18.71;58.83;101916.22;5035982;28;19967;-63
2023/06/15 06:04:30;;;;;;;;;;;;;;;18.77;58.96;101915.44;5043087;28;19948;-63
2023/06/15 06:06:55;;;;;;;;;;;;;;;18.81;58.31;101909.47;5047458;28;19917;-64
2023/06/15 06:09:20;;;;;;;;;;;;;;;18.86;57.92;101909.72;5039280;28;19921;-64
2023/06/15 06:11:48;;;;;;;;;;;;;;;18.93;57.74;101911.59;5036307;28;20016;-64
2023/06/15 06:14:14;;;;;;;;;;;;;;;18.98;58.06;101909.13;5041925;28;20398;-63
2023/06/15 06:16:39;;;;;;;;;;;;;;;19.03;57.90;101910.19;5046258;28;20000;-63
2023/06/15 06:19:05;;;;;;;;;;;;;;;19.09;57.87;101909.41;5040788;28;19919;-63
2023/06/15 06:21:31;;;;;;;;;;;;;;;19.15;57.26;101913.16;5040134;28;19920;-63
2023/06/15 06:23:56;;;;;;;;;;;;;;;19.22;56.79;101902.41;5035128;28;19917;-63
2023/06/15 06:26:21;;;;;;;;;;;;;;;19.29;57.37;101905.94;5032273;28;19924;-63
2023/06/15 06:28:48;;;;;;;;;;;;;;;19.37;57.23;101916.53;5039574;28;20407;-63
2023/06/15 06:31:13;;;;;;;;;;;;;;;19.44;56.64;101909.31;5030458;28;19913;-63
2023/06/15 06:33:38;;;;;;;;;;;;;;;19.50;56.65;101905.81;5031327;28;19959;-63
2023/06/15 06:36:05;;;;;;;;;;;;;;;19.58;56.27;101902.13;5030600;28;20286;-64
2023/06/15 06:38:30;;;;;;;;;;;;;;;19.65;56.17;101902.97;5030864;28;20012;-64
2023/06/15 06:40:56;;;;;;;;;;;;;;;19.71;55.66;101912.94;5034618;28;20050;-63
2023/06/15 06:43:21;;;;;;;;;;;;;;;19.77;55.91;101907.56;5046867;28;19913;-63
2023/06/15 06:45:46;;;;;;;;;;;;;;;19.86;55.51;101912.75;5032338;28;19913;-63
2023/06/15 06:48:12;;;;;;;;;;;;;;;19.94;55.20;101912.53;5031456;28;20029;-63
2023/06/15 06:50:37;;;;;;;;;;;;;;;19.99;55.38;101910.91;5029673;28;19924;-63
2023/06/15 06:53:02;;;;;;;;;;;;;;;20.07;55.37;101908.00;5030238;28;19913;-63
2023/06/15 06:55:27;;;;;;;;;;;;;;;20.11;55.31;101898.44;5046426;28;20396;-63
2023/06/15 06:57:52;;;;;;;;;;;;;;;20.25;55.05;101912.78;5041507;28;19924;-64
2023/06/15 07:00:18;;;;;;;;;;;;;;;20.33;54.67;101911.72;5044825;28;20007;-63
2023/06/15 07:02:43;;;;;;;;;;;;;;;20.39;54.48;101910.88;5041055;28;19917;-64
2023/06/15 07:05:08;;;;;;;;;;;;;;;20.48;54.69;101911.53;5035362;28;19928;-64
2023/06/15 07:07:33;;;;;;;;;;;;;;;20.57;54.66;101916.50;5030412;28;19999;-64
2023/06/15 07:09:58;;;;;;;;;;;;;;;20.66;54.21;101909.00;5040936;28;20425;-64
2023/06/15 07:12:23;;;;;;;;;;;;;;;20.75;54.20;101906.91;5049836;28;19968;-63
2023/06/15 07:14:49;;;;;;;;;;;;;;;20.81;53.71;101914.97;5040651;28;19947;-64
2023/06/15 07:17:14;;;;;;;;;;;;;;;20.88;53.53;101914.97;5042561;28;19932;-63
2023/06/15 07:19:39;;;;;;;;;;;;;;;20.96;53.46;101915.56;5041562;28;19921;-64
2023/06/15 07:22:05;;;;;;;;;;;;;;;21.04;53.48;101906.38;5042710;28;19919;-63
2023/06/15 07:24:30;;;;;;;;;;;;;;;21.12;53.36;101911.56;5036119;28;19917;-63
2023/06/15 07:26:56;;;;;;;;;;;;;;;21.19;53.45;101909.66;5046993;28;20382;-64
2023/06/15 07:29:21;;;;;;;;;;;;;;;21.28;53.04;101912.97;5038284;28;19933;-64
2023/06/15 07:31:46;;;;;;;;;;;;;;;21.31;52.65;101916.06;5043276;28;19913;-64
2023/06/15 07:34:12;;;;;;;;;;;;;;;21.37;52.67;101916.25;5034896;28;19913;-64
2023/06/15 07:36:37;;;;;;;;;;;;;;;21.45;52.24;101918.72;5033300;28;19917;-64
2023/06/15 07:39:03;;;;;;;;;;;;;;;21.52;52.34;101919.50;5036013;28;19956;-64
2023/06/15 07:41:28;;;;;;;;;;;;;;;21.57;52.09;101912.41;5030725;28;19917;-64
2023/06/15 07:43:53;;;;;;;;;;;;;;;21.64;51.90;101915.88;5038800;28;19998;-64
2023/06/15 07:46:18;;;;;;;;;;;;;;;21.71;51.55;101917.75;5030016;28;19917;-63
2023/06/15 07:48:43;;;;;;;;;;;;;;;21.77;50.87;101914.16;5035555;28;19913;-64
2023/06/15 07:51:08;;;;;;;;;;;;;;;21.82;50.25;101917.84;5030390;28;20018;-64
2023/06/15 07:53:34;;;;;;;;;;;;;;;21.88;49.82;101908.84;5036683;28;19917;-64
2023/06/15 07:55:59;;;;;;;;;;;;;;;21.95;49.29;101911.50;5040584;28;20309;-64
2023/06/15 07:58:24;;;;;;;;;;;;;;;22.00;48.22;101914.41;5036664;28;19917;-64
2023/06/15 08:00:49;;;;;;;;;;;;;;;22.07;48.37;101911.69;5038230;28;20483;-64
2023/06/15 08:03:14;;;;;;;;;;;;;;;22.16;48.49;101916.59;5039804;28;20011;-63
2023/06/15 08:05:40;;;;;;;;;;;;;;;22.25;47.96;101922.53;5036403;28;19917;-63
2023/06/15 08:08:05;;;;;;;;;;;;;;;22.32;48.02;101926.03;5035016;28;19924;-64
2023/06/15 08:10:31;;;;;;;;;;;;;;;22.38;47.41;101919.72;5047960;28;20010;-64
2023/06/15 08:12:57;;;;;;;;;;;;;;;22.46;46.84;101918.59;5029006;28;19913;-64
2023/06/15 08:15:22;;;;;;;;;;;;;;;22.58;47.11;101918.72;5034023;28;20279;-64
2023/06/15 08:17:47;;;;;;;;;;;;;;;22.69;47.17;101918.78;5038256;28;19917;-63
2023/06/15 08:20:13;;;;;;;;;;;;;;;22.79;46.72;101918.25;5037039;28;20399;-64
2023/06/15 08:22:38;;;;;;;;;;;;;;;22.91;46.32;101913.78;5034671;28;19913;-64
2023/06/15 08:25:03;;;;;;;;;;;;;;;23.02;45.90;101920.31;5032001;28;20527;-63
2023/06/15 08:27:29;;;;;;;;;;;;;;;23.10;45.89;101920.84;5048653;28;19913;-63
2023/06/15 08:29:54;;;;;;;;;;;;;;;23.24;45.59;101926.09;5040117;28;19928;-63
2023/06/15 08:32:19;;;;;;;;;;;;;;;23.33;45.64;101925.56;5028335;28;19912;-63
2023/06/15 08:34:44;;;;;;;;;;;;;;;23.44;45.56;101926.69;5032333;28;20421;-63
2023/06/15 08:37:11;;;;;;;;;;;;;;;23.52;44.97;101928.22;5031608;28;19924;-64
2023/06/15 08:39:37;;;;;;;;;;;;;;;23.57;44.40;101923.81;5037138;28;19923;-64
2023/06/15 08:42:02;;;;;;;;;;;;;;;23.68;43.84;101917.56;5038712;28;19917;-64
2023/06/15 08:44:29;;;;;;;;;;;;;;;23.80;44.20;101914.91;5039325;28;20642;-62
2023/06/15 08:46:56;;;;;;;;;;;;;;;23.95;43.12;101911.75;5042470;28;19921;-64
2023/06/15 08:49:21;;;;;;;;;;;;;;;24.09;43.16;101913.19;5036445;28;19921;-63
2023/06/15 08:51:47;;;;;;;;;;;;;;;24.18;43.25;101913.66;5034111;28;19989;-65
2023/06/15 08:54:12;;;;;;;;;;;;;;;24.25;42.06;101906.22;5037944;28;19917;-65
2023/06/15 08:56:38;;;;;;;;;;;;;;;24.34;42.61;101908.41;5031883;28;19947;-65
2023/06/15 08:59:03;;;;;;;;;;;;;;;24.44;42.58;101901.56;5037598;28;19919;-65
2023/06/15 09:01:30;;;;;;;;;;;;;;;24.49;40.82;101905.19;5044407;28;19971;-66
2023/06/15 09:03:55;;;;;;;;;;;;;;;24.51;41.00;101907.69;5042963;28;19951;-66
2023/06/15 09:06:21;;;;;;;;;;;;;;;24.53;40.36;101911.81;5035248;28;20413;-66
2023/06/15 09:08:48;;;;;;;;;;;;;;;24.61;40.56;101905.22;5032566;28;19956;-65
2023/06/15 09:11:13;;;;;;;;;;;;;;;24.75;40.49;101908.50;5032855;28;19917;-65
2023/06/15 09:13:38;;;;;;;;;;;;;;;24.92;40.06;101912.94;5038495;28;19920;-66
2023/06/15 09:16:07;;;;;;;;;;;;;;;25.08;39.17;101908.66;5040407;28;19921;-66
2023/06/15 09:18:41;;;;;;;;;;;;;;;25.17;38.94;101903.69;5042123;28;19924;-66
2023/06/15 09:21:10;;;;;;;;;;;;;;;25.30;38.04;101906.13;5041450;28;20020;-66
2023/06/15 09:23:35;;;;;;;;;;;;;;;25.42;38.12;101901.44;5037811;28;19918;-66
2023/06/15 09:26:00;;;;;;;;;;;;;;;25.53;37.75;101905.19;5030649;28;19920;-66
2023/06/15 09:28:28;;;;;;;;;;;;;;;25.56;37.96;101907.44;5038049;28;19925;-67
2023/06/15 09:30:57;;;;;;;;;;;;;;;25.60;37.43;101895.81;5036367;28;19929;-67
2023/06/15 09:33:22;;;;;;;;;;;;;;;25.58;36.72;101903.38;5034258;28;20378;-66
2023/06/15 09:36:00;;;;;;;;;;;;;;;25.60;35.75;101906.69;5037814;28;19932;-67
2023/06/15 09:38:32;;;;;;;;;;;;;;;25.53;35.55;101903.31;5035161;28;20443;-66
2023/06/15 09:41:05;;;;;;;;;;;;;;;25.48;35.23;101897.78;5035898;28;19956;-66
2023/06/15 09:43:34;;;;;;;;;;;;;;;25.48;36.27;101897.78;5037225;28;19916;-66
2023/06/15 09:46:00;;;;;;;;;;;;;;;25.60;36.56;101906.69;5035780;28;19944;-66
2023/06/15 09:48:25;;;;;;;;;;;;;;;25.78;36.30;101892.06;5034282;28;19960;-66
2023/06/15 09:50:59;;;;;;;;;;;;;;;26.03;35.98;101890.84;5034065;28;19963;-66
2023/06/15 09:53:25;;;;;;;;;;;;;;;26.28;36.14;101898.56;5037303;28;19967;-66
2023/06/15 09:55:50;;;;;;;;;;;;;;;26.36;35.49;101898.19;5040018;28;19921;-66
2023/06/15 09:58:16;;;;;;;;;;;;;;;26.37;35.76;101902.56;5041631;28;19932;-66
2023/06/15 10:00:41;;;;;;;;;;;;;;;26.35;35.50;101905.53;5045535;28;19917;-66
2023/06/15 10:03:09;;;;;;;;;;;;;;;26.20;35.65;101897.09;5041807;28;19928;-66
2023/06/15 10:05:38;;;;;;;;;;;;;;;26.05;35.48;101896.88;5049699;28;20003;-66
2023/06/15 10:08:04;;;;;;;;;;;;;;;25.90;35.59;101894.72;5037596;28;19929;-66
2023/06/15 10:10:30;;;;;;;;;;;;;;;25.79;35.75;101901.88;5036707;28;19928;-66
2023/06/15 10:12:57;;;;;;;;;;;;;;;25.75;35.84;101908.06;5042931;28;19916;-66
2023/06/15 10:15:23;;;;;;;;;;;;;;;25.69;36.30;101900.88;5035545;28;19956;-66
2023/06/15 10:17:50;;;;;;;;;;;;;;;25.65;36.39;101903.22;5037371;28;19917;-66
2023/06/15 10:20:17;;;;;;;;;;;;;;;25.63;36.56;101899.94;5050867;28;20382;-66
2023/06/15 10:22:50;;;;;;;;;;;;;;;25.62;36.22;101901.81;5037379;28;20294;-66
2023/06/15 10:25:15;;;;;;;;;;;;;;;25.71;35.99;101904.16;5035059;28;19928;-66
2023/06/15 10:27:42;;;;;;;;;;;;;;;25.77;35.94;101903.22;5037631;28;19913;-66
2023/06/15 10:30:12;;;;;;;;;;;;;;;25.74;35.21;101899.09;5035041;28;20007;-66
2023/06/15 10:33:07;;;;;;;;;;;;;;;25.67;35.69;101903.84;5032242;28;19920;-66
2023/06/15 10:35:32;;;;;;;;;;;;;;;25.65;36.05;101900.50;5005977;28;20001;-66
2023/06/15 10:38:06;;;;;;;;;;;;;;;25.63;35.09;101902.66;5033568;28;19919;-66
2023/06/15 10:40:38;;;;;;;;;;;;;;;25.55;34.85;101901.16;5031450;28;19988;-67
2023/06/15 10:43:04;;;;;;;;;;;;;;;25.56;35.21;101905.53;5030697;28;19913;-66
2023/06/15 10:45:31;;;;;;;;;;;;;;;25.56;34.54;101905.53;5037380;28;20321;-66
2023/06/15 10:47:57;;;;;;;;;;;;;;;25.49;35.53;101896.72;5032263;28;19959;-66
2023/06/15 10:50:24;;;;;;;;;;;;;;;25.52;36.01;101904.38;5050416;28;20035;-66
2023/06/15 10:52:50;;;;;;;;;;;;;;;25.57;35.87;101896.28;5054355;28;19917;-67
2023/06/15 10:55:15;;;;;;;;;;;;;;;25.61;35.68;101889.28;5032115;28;19967;-66
2023/06/15 10:57:40;;;;;;;;;;;;;;;25.56;35.82;101891.94;5036824;28;20374;-66
2023/06/15 11:00:07;;;;;;;;;;;;;;;25.64;36.49;101894.25;5030791;28;19913;-66
2023/06/15 11:02:32;;;;;;;;;;;;;;;25.73;36.48;101896.59;5040697;28;19923;-66
2023/06/15 11:05:09;;;;;;;;;;;;;;;25.75;36.89;101900.75;5034186;28;20000;-66
2023/06/15 11:07:39;;;;;;;;;;;;;;;25.75;35.83;101894.47;5035319;28;19924;-66
2023/06/15 11:10:14;;;;;;;;;;;;;;;25.75;35.61;101894.47;5033313;28;19932;-66
2023/06/15 11:12:41;;;;;;;;;;;;;;;25.93;36.24;101894.22;5034567;28;19921;-67
2023/06/15 11:15:15;;;;;;;;;;;;;;;26.21;36.22;101894.13;5040259;28;19920;-66
2023/06/15 11:17:56;;;;;;;;;;;;;;;26.53;35.61;101886.16;5045445;28;19955;-66
2023/06/15 11:20:42;;;;;;;;;;;;;;;26.79;34.87;101890.06;5036083;28;19966;-66
2023/06/15 11:23:10;;;;;;;;;;;;;;;27.00;34.12;101895.81;5047064;28;19920;-66
2023/06/15 11:25:36;;;;;;;;;;;;;;;27.08;33.44;101889.88;5030089;28;20385;-66
2023/06/15 11:28:02;;;;;;;;;;;;;;;27.26;33.07;101889.56;5036498;28;19913;-67
2023/06/15 11:30:28;;;;;;;;;;;;;;;27.52;33.07;101892.56;5035086;28;19932;-67
2023/06/15 11:32:53;;;;;;;;;;;;;;;27.73;32.66;101883.47;5055850;28;20420;-67
2023/06/15 11:35:19;;;;;;;;;;;;;;;27.88;32.30;101880.88;5049637;28;19917;-66
2023/06/15 11:37:44;;;;;;;;;;;;;;;28.04;31.54;101879.09;5043237;28;20132;-66
2023/06/15 11:40:10;;;;;;;;;;;;;;;28.08;30.94;101870.13;5036798;28;20555;-66
2023/06/15 11:42:35;;;;;;;;;;;;;;;28.21;32.03;101873.47;5035094;28;20325;-66
2023/06/15 11:45:01;;;;;;;;;;;;;;;28.40;32.01;101872.00;5035008;28;20400;-66
2023/06/15 11:47:26;;;;;;;;;;;;;;;28.53;31.62;101876.97;5037722;28;19928;-66
2023/06/15 11:49:51;;;;;;;;;;;;;;;28.51;30.98;101879.16;5033044;28;19917;-66
2023/06/15 11:52:16;;;;;;;;;;;;;;;28.35;30.46;101875.53;5038218;28;19921;-66
2023/06/15 11:54:42;;;;;;;;;;;;;;;28.22;30.37;101870.47;5035240;28;20000;-66
2023/06/15 11:57:07;;;;;;;;;;;;;;;28.12;30.91;101867.69;5036910;28;19921;-67
2023/06/15 11:59:35;;;;;;;;;;;;;;;28.00;30.60;101870.59;5042444;28;19924;-67
2023/06/15 12:02:03;;;;;;;;;;;;;;;27.93;31.16;101869.19;5047478;28;20258;-66
2023/06/15 12:04:31;;;;;;;;;;;;;;;27.86;31.80;101863.94;5037206;28;20410;-66
2023/06/15 12:06:58;;;;;;;;;;;;;;;27.85;31.62;101859.56;5039041;28;19921;-67
2023/06/15 12:09:23;;;;;;;;;;;;;;;27.91;31.77;101868.63;5039452;28;20301;-67
2023/06/15 12:11:48;;;;;;;;;;;;;;;28.00;31.68;101856.13;5035262;28;19913;-67
2023/06/15 12:14:20;;;;;;;;;;;;;;;28.04;32.32;101855.31;5038831;28;20008;-67
2023/06/15 12:16:52;;;;;;;;;;;;;;;28.07;31.89;101859.47;5042668;28;19917;-67
2023/06/15 12:19:17;;;;;;;;;;;;;;;28.03;31.27;101858.31;5035362;28;19944;-67
2023/06/15 12:21:43;;;;;;;;;;;;;;;27.96;31.15;101852.28;5035397;28;20423;-67
2023/06/15 12:24:12;;;;;;;;;;;;;;;27.95;31.08;101856.09;5033698;28;20547;-67
2023/06/15 12:26:38;;;;;;;;;;;;;;;28.08;31.35;101848.28;5042341;28;19917;-67
2023/06/15 12:29:12;;;;;;;;;;;;;;;28.31;31.09;101847.06;5030390;28;19983;-67
2023/06/15 12:31:38;;;;;;;;;;;;;;;28.60;31.30;101850.22;5034496;28;20262;-67